sensor_id;sensor_type;location;lat;lon;timestamp;P1;durP1;ratioP1;P2;durP2;ratioP2
75504;SDS011;64085;54.974;73.410;2023-02-21T00:00:07;19.77;;;8.57;;
75504;SDS011;64085;54.974;73.410;2023-02-21T00:02:51;19.92;;;10.23;;
75504;SDS011;64085;54.974;73.410;2023-02-21T00:05:35;21.15;;;10.40;;
75504;SDS011;64085;54.974;73.410;2023-02-21T00:08:19;16.55;;;9.20;;
75504;SDS011;64085;54.974;73.410;2023-02-21T00:11:03;17.90;;;9.38;;
75504;SDS011;64085;54.974;73.410;2023-02-21T00:13:47;18.52;;;10.10;;
75504;SDS011;64085;54.974;73.410;2023-02-21T00:16:30;17.27;;;8.85;;
75504;SDS011;64085;54.974;73.410;2023-02-21T00:19:14;20.08;;;10.95;;
75504;SDS011;64085;54.974;73.410;2023-02-21T00:21:58;16.15;;;8.65;;
75504;SDS011;64085;54.974;73.410;2023-02-21T00:24:42;17.60;;;7.57;;
75504;SDS011;64085;54.974;73.410;2023-02-21T00:27:27;13.20;;;7.22;;
75504;SDS011;64085;54.974;73.410;2023-02-21T00:30:11;15.35;;;7.72;;
75504;SDS011;64085;54.974;73.410;2023-02-21T00:32:58;11.82;;;6.68;;
75504;SDS011;64085;54.974;73.410;2023-02-21T00:35:42;20.58;;;9.65;;
75504;SDS011;64085;54.974;73.410;2023-02-21T00:38:26;18.13;;;8.75;;
75504;SDS011;64085;54.974;73.410;2023-02-21T00:41:10;16.90;;;9.05;;
75504;SDS011;64085;54.974;73.410;2023-02-21T00:43:53;16.70;;;8.20;;
75504;SDS011;64085;54.974;73.410;2023-02-21T00:46:38;17.70;;;8.75;;
75504;SDS011;64085;54.974;73.410;2023-02-21T00:49:22;18.38;;;8.65;;
75504;SDS011;64085;54.974;73.410;2023-02-21T00:52:06;29.33;;;13.77;;
75504;SDS011;64085;54.974;73.410;2023-02-21T00:54:50;18.38;;;9.88;;
75504;SDS011;64085;54.974;73.410;2023-02-21T00:57:34;11.85;;;7.47;;
75504;SDS011;64085;54.974;73.410;2023-02-21T01:00:20;15.93;;;7.65;;
75504;SDS011;64085;54.974;73.410;2023-02-21T01:03:06;21.23;;;8.82;;
75504;SDS011;64085;54.974;73.410;2023-02-21T01:05:51;15.73;;;9.25;;
75504;SDS011;64085;54.974;73.410;2023-02-21T01:08:39;17.48;;;9.88;;
75504;SDS011;64085;54.974;73.410;2023-02-21T01:11:28;13.30;;;7.90;;
75504;SDS011;64085;54.974;73.410;2023-02-21T01:14:13;19.35;;;9.10;;
75504;SDS011;64085;54.974;73.410;2023-02-21T01:16:58;16.67;;;8.75;;
75504;SDS011;64085;54.974;73.410;2023-02-21T01:19:42;18.27;;;8.30;;
75504;SDS011;64085;54.974;73.410;2023-02-21T01:22:26;19.27;;;10.10;;
75504;SDS011;64085;54.974;73.410;2023-02-21T01:25:12;14.05;;;6.38;;
75504;SDS011;64085;54.974;73.410;2023-02-21T01:27:57;12.77;;;7.13;;
75504;SDS011;64085;54.974;73.410;2023-02-21T01:30:40;21.23;;;9.15;;
75504;SDS011;64085;54.974;73.410;2023-02-21T01:33:24;18.27;;;10.00;;
75504;SDS011;64085;54.974;73.410;2023-02-21T01:36:08;24.27;;;12.05;;
75504;SDS011;64085;54.974;73.410;2023-02-21T01:38:53;22.65;;;9.82;;
75504;SDS011;64085;54.974;73.410;2023-02-21T01:41:37;30.23;;;15.18;;
75504;SDS011;64085;54.974;73.410;2023-02-21T01:44:42;15.55;;;8.35;;
75504;SDS011;64085;54.974;73.410;2023-02-21T01:47:26;20.83;;;9.95;;
75504;SDS011;64085;54.974;73.410;2023-02-21T01:50:15;18.48;;;10.07;;
75504;SDS011;64085;54.974;73.410;2023-02-21T01:53:04;5.55;;;2.75;;
75504;SDS011;64085;54.974;73.410;2023-02-21T01:55:51;14.80;;;7.03;;
75504;SDS011;64085;54.974;73.410;2023-02-21T01:58:37;22.77;;;11.35;;
75504;SDS011;64085;54.974;73.410;2023-02-21T02:01:44;32.65;;;18.05;;
75504;SDS011;64085;54.974;73.410;2023-02-21T02:04:57;17.65;;;11.10;;
75504;SDS011;64085;54.974;73.410;2023-02-21T02:07:42;23.77;;;10.40;;
75504;SDS011;64085;54.974;73.410;2023-02-21T02:10:26;20.63;;;9.70;;
75504;SDS011;64085;54.974;73.410;2023-02-21T02:32:19;18.45;;;9.10;;
75504;SDS011;64085;54.974;73.410;2023-02-21T02:35:04;20.92;;;9.55;;
75504;SDS011;64085;54.974;73.410;2023-02-21T02:45:45;20.60;;;8.77;;
75504;SDS011;64085;54.974;73.410;2023-02-21T02:48:19;17.08;;;9.63;;
75504;SDS011;64085;54.974;73.410;2023-02-21T02:50:48;18.75;;;10.43;;
75504;SDS011;64085;54.974;73.410;2023-02-21T02:53:18;20.77;;;11.27;;
75504;SDS011;64085;54.974;73.410;2023-02-21T02:55:47;21.45;;;10.57;;
75504;SDS011;64085;54.974;73.410;2023-02-21T02:58:17;18.77;;;9.40;;
75504;SDS011;64085;54.974;73.410;2023-02-21T03:00:49;24.30;;;11.35;;
75504;SDS011;64085;54.974;73.410;2023-02-21T03:03:44;18.88;;;8.88;;
75504;SDS011;64085;54.974;73.410;2023-02-21T03:11:34;19.90;;;9.68;;
75504;SDS011;64085;54.974;73.410;2023-02-21T03:19:16;21.60;;;10.73;;
75504;SDS011;64085;54.974;73.410;2023-02-21T03:22:12;21.25;;;11.50;;
75504;SDS011;64085;54.974;73.410;2023-02-21T03:24:39;18.25;;;9.43;;
75504;SDS011;64085;54.974;73.410;2023-02-21T03:27:08;21.90;;;10.88;;
75504;SDS011;64085;54.974;73.410;2023-02-21T03:29:36;19.65;;;10.93;;
75504;SDS011;64085;54.974;73.410;2023-02-21T03:32:07;21.60;;;10.27;;
75504;SDS011;64085;54.974;73.410;2023-02-21T03:34:38;20.08;;;10.32;;
75504;SDS011;64085;54.974;73.410;2023-02-21T03:37:06;22.50;;;12.90;;
75504;SDS011;64085;54.974;73.410;2023-02-21T03:39:33;23.38;;;13.02;;
75504;SDS011;64085;54.974;73.410;2023-02-21T03:41:58;17.23;;;9.25;;
75504;SDS011;64085;54.974;73.410;2023-02-21T03:44:24;18.45;;;9.75;;
75504;SDS011;64085;54.974;73.410;2023-02-21T03:46:49;23.05;;;10.95;;
75504;SDS011;64085;54.974;73.410;2023-02-21T03:49:15;19.75;;;10.70;;
75504;SDS011;64085;54.974;73.410;2023-02-21T03:51:41;19.17;;;10.05;;
75504;SDS011;64085;54.974;73.410;2023-02-21T03:54:06;15.65;;;9.23;;
75504;SDS011;64085;54.974;73.410;2023-02-21T03:56:32;20.33;;;10.88;;
75504;SDS011;64085;54.974;73.410;2023-02-21T03:58:58;25.38;;;12.40;;
75504;SDS011;64085;54.974;73.410;2023-02-21T04:01:23;19.63;;;9.93;;
75504;SDS011;64085;54.974;73.410;2023-02-21T04:03:49;21.27;;;10.98;;
75504;SDS011;64085;54.974;73.410;2023-02-21T04:06:15;20.25;;;10.05;;
75504;SDS011;64085;54.974;73.410;2023-02-21T04:08:41;18.33;;;8.05;;
75504;SDS011;64085;54.974;73.410;2023-02-21T04:11:07;17.85;;;9.13;;
75504;SDS011;64085;54.974;73.410;2023-02-21T04:13:32;21.83;;;11.98;;
75504;SDS011;64085;54.974;73.410;2023-02-21T04:15:58;23.55;;;12.45;;
75504;SDS011;64085;54.974;73.410;2023-02-21T04:18:24;18.80;;;10.82;;
75504;SDS011;64085;54.974;73.410;2023-02-21T04:20:49;18.98;;;8.48;;
75504;SDS011;64085;54.974;73.410;2023-02-21T04:23:18;19.30;;;10.40;;
75504;SDS011;64085;54.974;73.410;2023-02-21T04:25:45;19.02;;;11.32;;
75504;SDS011;64085;54.974;73.410;2023-02-21T04:28:12;25.15;;;11.48;;
75504;SDS011;64085;54.974;73.410;2023-02-21T04:30:38;28.00;;;16.63;;
75504;SDS011;64085;54.974;73.410;2023-02-21T04:33:04;19.40;;;13.50;;
75504;SDS011;64085;54.974;73.410;2023-02-21T04:35:29;22.45;;;14.98;;
75504;SDS011;64085;54.974;73.410;2023-02-21T04:37:55;28.30;;;14.25;;
75504;SDS011;64085;54.974;73.410;2023-02-21T04:40:21;27.42;;;16.48;;
75504;SDS011;64085;54.974;73.410;2023-02-21T04:42:46;25.98;;;12.50;;
75504;SDS011;64085;54.974;73.410;2023-02-21T04:45:12;24.17;;;12.50;;
75504;SDS011;64085;54.974;73.410;2023-02-21T04:47:38;27.60;;;12.63;;
75504;SDS011;64085;54.974;73.410;2023-02-21T04:50:04;23.65;;;13.13;;
75504;SDS011;64085;54.974;73.410;2023-02-21T04:52:30;23.08;;;10.27;;
75504;SDS011;64085;54.974;73.410;2023-02-21T04:54:56;20.13;;;9.98;;
75504;SDS011;64085;54.974;73.410;2023-02-21T04:57:22;25.48;;;11.55;;
75504;SDS011;64085;54.974;73.410;2023-02-21T04:59:48;21.65;;;10.73;;
75504;SDS011;64085;54.974;73.410;2023-02-21T05:02:21;22.20;;;10.27;;
75504;SDS011;64085;54.974;73.410;2023-02-21T05:04:46;24.65;;;10.70;;
75504;SDS011;64085;54.974;73.410;2023-02-21T05:07:12;17.88;;;9.57;;
75504;SDS011;64085;54.974;73.410;2023-02-21T05:09:38;21.17;;;10.90;;
75504;SDS011;64085;54.974;73.410;2023-02-21T05:12:03;16.58;;;7.72;;
75504;SDS011;64085;54.974;73.410;2023-02-21T05:14:35;22.38;;;11.18;;
75504;SDS011;64085;54.974;73.410;2023-02-21T05:19:30;21.38;;;12.05;;
75504;SDS011;64085;54.974;73.410;2023-02-21T05:21:57;20.48;;;9.82;;
75504;SDS011;64085;54.974;73.410;2023-02-21T05:24:25;25.65;;;12.35;;
75504;SDS011;64085;54.974;73.410;2023-02-21T05:26:52;16.35;;;9.55;;
75504;SDS011;64085;54.974;73.410;2023-02-21T05:29:18;17.50;;;9.25;;
75504;SDS011;64085;54.974;73.410;2023-02-21T05:31:44;25.90;;;12.57;;
75504;SDS011;64085;54.974;73.410;2023-02-21T05:34:10;17.13;;;10.10;;
75504;SDS011;64085;54.974;73.410;2023-02-21T05:36:36;21.25;;;11.57;;
75504;SDS011;64085;54.974;73.410;2023-02-21T05:39:03;20.77;;;11.77;;
75504;SDS011;64085;54.974;73.410;2023-02-21T05:41:29;15.55;;;10.38;;
75504;SDS011;64085;54.974;73.410;2023-02-21T05:43:55;18.88;;;10.02;;
75504;SDS011;64085;54.974;73.410;2023-02-21T05:46:25;20.27;;;9.45;;
75504;SDS011;64085;54.974;73.410;2023-02-21T05:48:56;19.25;;;9.77;;
75504;SDS011;64085;54.974;73.410;2023-02-21T05:51:22;21.10;;;8.77;;
75504;SDS011;64085;54.974;73.410;2023-02-21T05:53:49;14.02;;;7.93;;
75504;SDS011;64085;54.974;73.410;2023-02-21T05:56:15;19.33;;;7.97;;
75504;SDS011;64085;54.974;73.410;2023-02-21T05:58:42;13.85;;;7.10;;
75504;SDS011;64085;54.974;73.410;2023-02-21T06:01:08;15.40;;;9.80;;
75504;SDS011;64085;54.974;73.410;2023-02-21T06:03:34;18.90;;;9.50;;
75504;SDS011;64085;54.974;73.410;2023-02-21T06:06:00;16.45;;;9.35;;
75504;SDS011;64085;54.974;73.410;2023-02-21T06:08:26;15.90;;;6.60;;
75504;SDS011;64085;54.974;73.410;2023-02-21T06:10:51;21.13;;;10.93;;
75504;SDS011;64085;54.974;73.410;2023-02-21T06:13:17;16.60;;;9.25;;
75504;SDS011;64085;54.974;73.410;2023-02-21T06:15:43;20.65;;;10.20;;
75504;SDS011;64085;54.974;73.410;2023-02-21T06:18:11;20.15;;;8.10;;
75504;SDS011;64085;54.974;73.410;2023-02-21T06:20:38;15.82;;;7.57;;
75504;SDS011;64085;54.974;73.410;2023-02-21T06:23:04;12.52;;;7.63;;
75504;SDS011;64085;54.974;73.410;2023-02-21T06:25:29;11.32;;;7.25;;
75504;SDS011;64085;54.974;73.410;2023-02-21T06:27:55;16.33;;;7.00;;
75504;SDS011;64085;54.974;73.410;2023-02-21T06:30:21;13.20;;;7.65;;
75504;SDS011;64085;54.974;73.410;2023-02-21T06:32:46;14.52;;;8.75;;
75504;SDS011;64085;54.974;73.410;2023-02-21T06:35:12;13.65;;;6.18;;
75504;SDS011;64085;54.974;73.410;2023-02-21T06:37:38;10.93;;;7.53;;
75504;SDS011;64085;54.974;73.410;2023-02-21T06:40:03;15.63;;;7.75;;
75504;SDS011;64085;54.974;73.410;2023-02-21T06:42:30;19.08;;;10.00;;
75504;SDS011;64085;54.974;73.410;2023-02-21T06:44:55;15.48;;;9.15;;
75504;SDS011;64085;54.974;73.410;2023-02-21T06:47:21;22.00;;;11.02;;
75504;SDS011;64085;54.974;73.410;2023-02-21T06:49:47;26.65;;;13.60;;
75504;SDS011;64085;54.974;73.410;2023-02-21T06:52:13;16.30;;;9.43;;
75504;SDS011;64085;54.974;73.410;2023-02-21T06:54:39;20.35;;;9.07;;
75504;SDS011;64085;54.974;73.410;2023-02-21T06:57:05;19.17;;;8.80;;
75504;SDS011;64085;54.974;73.410;2023-02-21T06:59:31;13.80;;;7.15;;
75504;SDS011;64085;54.974;73.410;2023-02-21T07:01:57;11.48;;;6.13;;
75504;SDS011;64085;54.974;73.410;2023-02-21T07:04:23;12.20;;;5.68;;
75504;SDS011;64085;54.974;73.410;2023-02-21T07:06:49;13.40;;;8.05;;
75504;SDS011;64085;54.974;73.410;2023-02-21T07:09:15;7.13;;;3.75;;
75504;SDS011;64085;54.974;73.410;2023-02-21T07:11:41;9.90;;;5.55;;
75504;SDS011;64085;54.974;73.410;2023-02-21T07:14:06;12.48;;;7.38;;
75504;SDS011;64085;54.974;73.410;2023-02-21T07:16:32;5.70;;;4.03;;
75504;SDS011;64085;54.974;73.410;2023-02-21T07:18:58;11.30;;;6.22;;
75504;SDS011;64085;54.974;73.410;2023-02-21T07:21:24;7.88;;;3.92;;
75504;SDS011;64085;54.974;73.410;2023-02-21T07:23:51;8.10;;;4.75;;
75504;SDS011;64085;54.974;73.410;2023-02-21T07:26:17;9.40;;;5.90;;
75504;SDS011;64085;54.974;73.410;2023-02-21T07:28:43;8.10;;;5.43;;
75504;SDS011;64085;54.974;73.410;2023-02-21T07:31:10;13.73;;;7.13;;
75504;SDS011;64085;54.974;73.410;2023-02-21T07:33:35;13.95;;;6.97;;
75504;SDS011;64085;54.974;73.410;2023-02-21T07:36:01;16.45;;;8.52;;
75504;SDS011;64085;54.974;73.410;2023-02-21T07:38:27;15.27;;;8.18;;
75504;SDS011;64085;54.974;73.410;2023-02-21T07:40:55;11.10;;;5.78;;
75504;SDS011;64085;54.974;73.410;2023-02-21T07:43:25;9.68;;;5.22;;
75504;SDS011;64085;54.974;73.410;2023-02-21T07:45:53;15.35;;;7.32;;
75504;SDS011;64085;54.974;73.410;2023-02-21T07:48:18;15.25;;;7.40;;
75504;SDS011;64085;54.974;73.410;2023-02-21T07:50:44;11.27;;;7.00;;
75504;SDS011;64085;54.974;73.410;2023-02-21T07:53:10;11.57;;;5.63;;
75504;SDS011;64085;54.974;73.410;2023-02-21T07:55:38;10.98;;;4.97;;
75504;SDS011;64085;54.974;73.410;2023-02-21T07:58:04;13.07;;;6.20;;
75504;SDS011;64085;54.974;73.410;2023-02-21T08:00:30;8.98;;;4.57;;
75504;SDS011;64085;54.974;73.410;2023-02-21T08:02:56;9.13;;;5.55;;
75504;SDS011;64085;54.974;73.410;2023-02-21T08:05:22;9.77;;;5.60;;
75504;SDS011;64085;54.974;73.410;2023-02-21T08:07:47;7.38;;;3.70;;
75504;SDS011;64085;54.974;73.410;2023-02-21T08:10:18;7.63;;;4.50;;
75504;SDS011;64085;54.974;73.410;2023-02-21T08:12:49;13.23;;;6.63;;
75504;SDS011;64085;54.974;73.410;2023-02-21T08:15:15;15.15;;;6.35;;
75504;SDS011;64085;54.974;73.410;2023-02-21T08:17:41;11.45;;;5.97;;
75504;SDS011;64085;54.974;73.410;2023-02-21T08:20:06;8.43;;;5.60;;
75504;SDS011;64085;54.974;73.410;2023-02-21T08:22:33;7.68;;;4.10;;
75504;SDS011;64085;54.974;73.410;2023-02-21T08:25:00;9.10;;;4.57;;
75504;SDS011;64085;54.974;73.410;2023-02-21T08:27:25;10.65;;;5.38;;
75504;SDS011;64085;54.974;73.410;2023-02-21T08:29:51;10.65;;;5.53;;
75504;SDS011;64085;54.974;73.410;2023-02-21T08:32:17;9.25;;;6.53;;
75504;SDS011;64085;54.974;73.410;2023-02-21T08:34:44;8.18;;;4.90;;
75504;SDS011;64085;54.974;73.410;2023-02-21T08:37:11;16.77;;;9.18;;
75504;SDS011;64085;54.974;73.410;2023-02-21T08:39:45;9.15;;;6.15;;
75504;SDS011;64085;54.974;73.410;2023-02-21T08:42:12;8.98;;;5.07;;
75504;SDS011;64085;54.974;73.410;2023-02-21T08:44:38;9.23;;;5.15;;
75504;SDS011;64085;54.974;73.410;2023-02-21T08:47:04;9.90;;;5.30;;
75504;SDS011;64085;54.974;73.410;2023-02-21T08:49:29;8.68;;;5.07;;
75504;SDS011;64085;54.974;73.410;2023-02-21T08:51:55;10.35;;;5.18;;
75504;SDS011;64085;54.974;73.410;2023-02-21T08:54:20;9.57;;;5.07;;
75504;SDS011;64085;54.974;73.410;2023-02-21T08:56:46;9.32;;;6.57;;
75504;SDS011;64085;54.974;73.410;2023-02-21T08:59:13;9.05;;;4.95;;
75504;SDS011;64085;54.974;73.410;2023-02-21T09:01:39;11.60;;;8.23;;
75504;SDS011;64085;54.974;73.410;2023-02-21T09:04:05;8.68;;;4.18;;
75504;SDS011;64085;54.974;73.410;2023-02-21T09:06:30;9.05;;;5.20;;
75504;SDS011;64085;54.974;73.410;2023-02-21T09:08:56;11.68;;;7.90;;
75504;SDS011;64085;54.974;73.410;2023-02-21T09:11:22;9.30;;;5.30;;
75504;SDS011;64085;54.974;73.410;2023-02-21T09:13:48;14.57;;;7.40;;
75504;SDS011;64085;54.974;73.410;2023-02-21T09:16:13;8.02;;;5.55;;
75504;SDS011;64085;54.974;73.410;2023-02-21T09:18:39;10.05;;;5.10;;
75504;SDS011;64085;54.974;73.410;2023-02-21T09:21:05;4.28;;;3.70;;
75504;SDS011;64085;54.974;73.410;2023-02-21T09:23:31;10.13;;;5.13;;
75504;SDS011;64085;54.974;73.410;2023-02-21T09:25:57;9.57;;;5.38;;
75504;SDS011;64085;54.974;73.410;2023-02-21T09:28:23;9.18;;;5.80;;
75504;SDS011;64085;54.974;73.410;2023-02-21T09:30:49;11.98;;;6.75;;
75504;SDS011;64085;54.974;73.410;2023-02-21T09:33:15;10.02;;;5.78;;
75504;SDS011;64085;54.974;73.410;2023-02-21T09:35:41;11.95;;;5.45;;
75504;SDS011;64085;54.974;73.410;2023-02-21T09:38:07;12.55;;;5.70;;
75504;SDS011;64085;54.974;73.410;2023-02-21T09:40:39;8.63;;;3.95;;
75504;SDS011;64085;54.974;73.410;2023-02-21T09:43:07;11.10;;;4.70;;
75504;SDS011;64085;54.974;73.410;2023-02-21T09:45:56;7.35;;;4.70;;
75504;SDS011;64085;54.974;73.410;2023-02-21T09:48:25;11.25;;;5.97;;
75504;SDS011;64085;54.974;73.410;2023-02-21T09:50:53;11.80;;;5.38;;
75504;SDS011;64085;54.974;73.410;2023-02-21T09:53:26;8.02;;;5.13;;
75504;SDS011;64085;54.974;73.410;2023-02-21T09:56:04;9.90;;;5.07;;
75504;SDS011;64085;54.974;73.410;2023-02-21T09:58:33;10.77;;;5.00;;
75504;SDS011;64085;54.974;73.410;2023-02-21T10:01:03;12.77;;;6.70;;
75504;SDS011;64085;54.974;73.410;2023-02-21T10:03:41;10.05;;;5.60;;
75504;SDS011;64085;54.974;73.410;2023-02-21T10:09:02;6.85;;;4.55;;
75504;SDS011;64085;54.974;73.410;2023-02-21T10:16:58;10.90;;;6.15;;
75504;SDS011;64085;54.974;73.410;2023-02-21T10:19:32;9.82;;;5.70;;
75504;SDS011;64085;54.974;73.410;2023-02-21T10:22:08;11.73;;;6.07;;
75504;SDS011;64085;54.974;73.410;2023-02-21T10:24:44;8.50;;;5.30;;
75504;SDS011;64085;54.974;73.410;2023-02-21T10:27:14;7.05;;;5.18;;
75504;SDS011;64085;54.974;73.410;2023-02-21T10:32:23;9.27;;;5.70;;
75504;SDS011;64085;54.974;73.410;2023-02-21T10:34:49;8.13;;;5.05;;
75504;SDS011;64085;54.974;73.410;2023-02-21T10:40:43;10.18;;;7.18;;
75504;SDS011;64085;54.974;73.410;2023-02-21T10:42:55;14.88;;;6.25;;
75504;SDS011;64085;54.974;73.410;2023-02-21T10:45:42;11.15;;;6.53;;
75504;SDS011;64085;54.974;73.410;2023-02-21T10:48:12;15.90;;;8.60;;
75504;SDS011;64085;54.974;73.410;2023-02-21T10:50:49;10.25;;;5.25;;
75504;SDS011;64085;54.974;73.410;2023-02-21T10:53:28;11.60;;;6.93;;
75504;SDS011;64085;54.974;73.410;2023-02-21T10:58:52;12.68;;;6.82;;
75504;SDS011;64085;54.974;73.410;2023-02-21T11:01:36;15.32;;;7.15;;
75504;SDS011;64085;54.974;73.410;2023-02-21T11:06:43;13.00;;;7.43;;
75504;SDS011;64085;54.974;73.410;2023-02-21T11:12:26;13.18;;;6.53;;
75504;SDS011;64085;54.974;73.410;2023-02-21T11:19:47;12.68;;;5.32;;
75504;SDS011;64085;54.974;73.410;2023-02-21T11:22:16;16.25;;;8.65;;
75504;SDS011;64085;54.974;73.410;2023-02-21T11:24:59;15.50;;;7.13;;
75504;SDS011;64085;54.974;73.410;2023-02-21T11:27:30;11.60;;;6.25;;
75504;SDS011;64085;54.974;73.410;2023-02-21T11:29:58;12.55;;;6.65;;
75504;SDS011;64085;54.974;73.410;2023-02-21T11:32:28;14.82;;;6.60;;
75504;SDS011;64085;54.974;73.410;2023-02-21T11:35:20;13.02;;;6.40;;
75504;SDS011;64085;54.974;73.410;2023-02-21T11:37:51;16.40;;;7.35;;
75504;SDS011;64085;54.974;73.410;2023-02-21T11:40:23;11.25;;;7.13;;
75504;SDS011;64085;54.974;73.410;2023-02-21T11:43:09;12.60;;;6.28;;
75504;SDS011;64085;54.974;73.410;2023-02-21T11:45:35;14.63;;;8.68;;
75504;SDS011;64085;54.974;73.410;2023-02-21T11:48:11;22.70;;;11.23;;
75504;SDS011;64085;54.974;73.410;2023-02-21T11:50:41;15.18;;;8.02;;
75504;SDS011;64085;54.974;73.410;2023-02-21T11:55:43;21.48;;;11.07;;
75504;SDS011;64085;54.974;73.410;2023-02-21T11:58:42;17.70;;;8.20;;
75504;SDS011;64085;54.974;73.410;2023-02-21T12:01:26;14.95;;;8.20;;
75504;SDS011;64085;54.974;73.410;2023-02-21T12:13:03;15.32;;;9.00;;
75504;SDS011;64085;54.974;73.410;2023-02-21T12:21:21;15.40;;;9.02;;
75504;SDS011;64085;54.974;73.410;2023-02-21T12:27:06;15.18;;;7.60;;
75504;SDS011;64085;54.974;73.410;2023-02-21T12:29:40;11.75;;;6.53;;
75504;SDS011;64085;54.974;73.410;2023-02-21T12:38:04;12.02;;;7.35;;
75504;SDS011;64085;54.974;73.410;2023-02-21T12:43:34;16.15;;;9.25;;
75504;SDS011;64085;54.974;73.410;2023-02-21T12:48:53;20.05;;;10.63;;
75504;SDS011;64085;54.974;73.410;2023-02-21T12:51:21;22.02;;;10.57;;
75504;SDS011;64085;54.974;73.410;2023-02-21T12:53:57;23.95;;;13.55;;
75504;SDS011;64085;54.974;73.410;2023-02-21T13:10:33;17.90;;;8.77;;
75504;SDS011;64085;54.974;73.410;2023-02-21T13:15:28;15.65;;;7.80;;
75504;SDS011;64085;54.974;73.410;2023-02-21T13:20:34;18.33;;;9.27;;
75504;SDS011;64085;54.974;73.410;2023-02-21T13:28:55;16.73;;;8.93;;
75504;SDS011;64085;54.974;73.410;2023-02-21T13:31:23;14.48;;;8.35;;
75504;SDS011;64085;54.974;73.410;2023-02-21T13:34:00;11.95;;;6.15;;
75504;SDS011;64085;54.974;73.410;2023-02-21T13:36:28;13.63;;;6.60;;
75504;SDS011;64085;54.974;73.410;2023-02-21T13:38:58;17.33;;;9.00;;
75504;SDS011;64085;54.974;73.410;2023-02-21T13:41:25;17.13;;;9.57;;
75504;SDS011;64085;54.974;73.410;2023-02-21T13:43:53;17.60;;;9.50;;
75504;SDS011;64085;54.974;73.410;2023-02-21T14:21:08;18.98;;;9.15;;
75504;SDS011;64085;54.974;73.410;2023-02-21T14:37:15;20.95;;;11.10;;
75504;SDS011;64085;54.974;73.410;2023-02-21T14:53:56;10.55;;;5.72;;
75504;SDS011;64085;54.974;73.410;2023-02-21T15:05:06;9.80;;;5.85;;
75504;SDS011;64085;54.974;73.410;2023-02-21T15:08:23;14.10;;;7.40;;
75504;SDS011;64085;54.974;73.410;2023-02-21T15:10:43;9.43;;;6.15;;
75504;SDS011;64085;54.974;73.410;2023-02-21T15:13:21;12.50;;;6.57;;
75504;SDS011;64085;54.974;73.410;2023-02-21T15:16:07;12.70;;;6.10;;
75504;SDS011;64085;54.974;73.410;2023-02-21T15:18:40;11.27;;;6.65;;
75504;SDS011;64085;54.974;73.410;2023-02-21T15:21:21;8.05;;;5.75;;
75504;SDS011;64085;54.974;73.410;2023-02-21T15:23:58;12.63;;;8.10;;
75504;SDS011;64085;54.974;73.410;2023-02-21T15:26:27;8.20;;;5.75;;
75504;SDS011;64085;54.974;73.410;2023-02-21T15:29:05;9.18;;;5.72;;
75504;SDS011;64085;54.974;73.410;2023-02-21T15:34:51;12.15;;;8.68;;
75504;SDS011;64085;54.974;73.410;2023-02-21T15:37:02;13.77;;;8.48;;
75504;SDS011;64085;54.974;73.410;2023-02-21T15:39:35;12.25;;;6.88;;
75504;SDS011;64085;54.974;73.410;2023-02-21T15:42:05;21.08;;;11.75;;
75504;SDS011;64085;54.974;73.410;2023-02-21T15:44:37;14.35;;;9.30;;
75504;SDS011;64085;54.974;73.410;2023-02-21T15:47:21;12.30;;;7.72;;
75504;SDS011;64085;54.974;73.410;2023-02-21T15:50:09;8.38;;;5.13;;
75504;SDS011;64085;54.974;73.410;2023-02-21T15:52:41;6.88;;;4.45;;
75504;SDS011;64085;54.974;73.410;2023-02-21T15:57:44;7.65;;;5.05;;
75504;SDS011;64085;54.974;73.410;2023-02-21T16:00:45;10.98;;;5.70;;
75504;SDS011;64085;54.974;73.410;2023-02-21T16:06:13;14.27;;;7.65;;
75504;SDS011;64085;54.974;73.410;2023-02-21T16:08:49;15.80;;;7.80;;
75504;SDS011;64085;54.974;73.410;2023-02-21T16:11:51;9.90;;;5.68;;
75504;SDS011;64085;54.974;73.410;2023-02-21T16:14:30;11.80;;;6.32;;
75504;SDS011;64085;54.974;73.410;2023-02-21T16:17:06;9.70;;;5.75;;
75504;SDS011;64085;54.974;73.410;2023-02-21T16:19:54;11.73;;;7.05;;
75504;SDS011;64085;54.974;73.410;2023-02-21T16:25:12;5.70;;;3.30;;
75504;SDS011;64085;54.974;73.410;2023-02-21T16:27:44;11.45;;;6.07;;
75504;SDS011;64085;54.974;73.410;2023-02-21T16:30:14;8.70;;;5.07;;
75504;SDS011;64085;54.974;73.410;2023-02-21T16:32:42;10.52;;;5.85;;
75504;SDS011;64085;54.974;73.410;2023-02-21T16:35:13;8.00;;;4.30;;
75504;SDS011;64085;54.974;73.410;2023-02-21T16:37:46;7.50;;;4.03;;
75504;SDS011;64085;54.974;73.410;2023-02-21T16:40:14;9.02;;;5.07;;
75504;SDS011;64085;54.974;73.410;2023-02-21T16:42:46;6.93;;;3.92;;
75504;SDS011;64085;54.974;73.410;2023-02-21T16:45:12;5.15;;;4.25;;
75504;SDS011;64085;54.974;73.410;2023-02-21T16:47:42;6.50;;;4.15;;
75504;SDS011;64085;54.974;73.410;2023-02-21T16:50:25;9.18;;;4.88;;
75504;SDS011;64085;54.974;73.410;2023-02-21T16:52:52;5.50;;;3.30;;
75504;SDS011;64085;54.974;73.410;2023-02-21T16:55:20;7.97;;;4.47;;
75504;SDS011;64085;54.974;73.410;2023-02-21T16:57:46;11.15;;;7.15;;
75504;SDS011;64085;54.974;73.410;2023-02-21T17:00:16;10.10;;;5.60;;
75504;SDS011;64085;54.974;73.410;2023-02-21T17:03:03;7.93;;;5.10;;
75504;SDS011;64085;54.974;73.410;2023-02-21T17:05:30;4.97;;;4.45;;
75504;SDS011;64085;54.974;73.410;2023-02-21T17:08:00;7.13;;;4.38;;
75504;SDS011;64085;54.974;73.410;2023-02-21T17:10:26;6.57;;;4.50;;
75504;SDS011;64085;54.974;73.410;2023-02-21T17:12:53;6.32;;;4.07;;
75504;SDS011;64085;54.974;73.410;2023-02-21T17:15:19;5.18;;;3.22;;
75504;SDS011;64085;54.974;73.410;2023-02-21T17:17:47;3.85;;;3.45;;
75504;SDS011;64085;54.974;73.410;2023-02-21T17:20:14;7.30;;;3.92;;
75504;SDS011;64085;54.974;73.410;2023-02-21T17:22:42;3.78;;;2.65;;
75504;SDS011;64085;54.974;73.410;2023-02-21T17:25:08;5.20;;;3.35;;
75504;SDS011;64085;54.974;73.410;2023-02-21T17:27:35;4.65;;;3.67;;
75504;SDS011;64085;54.974;73.410;2023-02-21T17:30:03;5.82;;;3.92;;
75504;SDS011;64085;54.974;73.410;2023-02-21T17:32:31;4.32;;;3.33;;
75504;SDS011;64085;54.974;73.410;2023-02-21T17:35:08;2.83;;;1.75;;
75504;SDS011;64085;54.974;73.410;2023-02-21T17:37:34;5.40;;;3.13;;
75504;SDS011;64085;54.974;73.410;2023-02-21T17:40:03;3.03;;;2.70;;
75504;SDS011;64085;54.974;73.410;2023-02-21T17:42:30;6.07;;;3.88;;
75504;SDS011;64085;54.974;73.410;2023-02-21T17:44:57;4.93;;;4.35;;
75504;SDS011;64085;54.974;73.410;2023-02-21T17:47:26;4.97;;;3.95;;
75504;SDS011;64085;54.974;73.410;2023-02-21T17:49:52;5.05;;;4.22;;
75504;SDS011;64085;54.974;73.410;2023-02-21T17:52:23;4.13;;;2.83;;
75504;SDS011;64085;54.974;73.410;2023-02-21T17:54:48;4.85;;;2.92;;
75504;SDS011;64085;54.974;73.410;2023-02-21T17:57:14;5.18;;;3.88;;
75504;SDS011;64085;54.974;73.410;2023-02-21T17:59:40;5.88;;;3.53;;
75504;SDS011;64085;54.974;73.410;2023-02-21T18:02:06;3.83;;;2.88;;
75504;SDS011;64085;54.974;73.410;2023-02-21T18:04:34;7.75;;;4.20;;
75504;SDS011;64085;54.974;73.410;2023-02-21T18:07:00;6.00;;;3.15;;
75504;SDS011;64085;54.974;73.410;2023-02-21T18:09:26;4.95;;;3.28;;
75504;SDS011;64085;54.974;73.410;2023-02-21T18:11:52;3.08;;;2.50;;
75504;SDS011;64085;54.974;73.410;2023-02-21T18:14:19;5.45;;;3.63;;
75504;SDS011;64085;54.974;73.410;2023-02-21T18:16:46;7.78;;;4.40;;